createdAt,value
2022-08-04T00:01:12.842Z,2.55
2022-08-04T00:03:52.153Z,2.40
2022-08-04T00:06:39.181Z,2.35
2022-08-04T00:09:17.314Z,2.72
2022-08-04T00:11:49.100Z,2.40
2022-08-04T00:14:22.130Z,2.45
2022-08-04T00:16:50.872Z,2.60
2022-08-04T00:19:23.174Z,2.40
2022-08-04T00:21:59.941Z,2.70
2022-08-04T00:24:29.744Z,2.40
2022-08-04T00:26:56.591Z,2.75
2022-08-04T00:29:26.486Z,2.42
2022-08-04T00:31:57.405Z,2.65
2022-08-04T00:34:26.868Z,2.55
2022-08-04T00:36:55.391Z,2.33
2022-08-04T00:39:23.090Z,2.65
2022-08-04T00:42:08.538Z,2.60
2022-08-04T00:44:50.223Z,2.58
2022-08-04T00:47:49.541Z,3.97
2022-08-04T00:50:28.517Z,2.40
2022-08-04T00:53:06.000Z,2.70
2022-08-04T00:56:06.257Z,2.38
2022-08-04T00:58:42.963Z,2.63
2022-08-04T01:01:33.469Z,2.60
2022-08-04T01:04:25.577Z,2.80
2022-08-04T01:07:27.599Z,2.60
2022-08-04T01:10:42.409Z,2.95
2022-08-04T01:13:33.585Z,2.45
2022-08-04T01:16:06.209Z,2.80
2022-08-04T01:19:00.095Z,2.55
2022-08-04T01:21:29.476Z,3.15
2022-08-04T01:24:17.099Z,2.65
2022-08-04T01:27:00.224Z,3.05
2022-08-04T01:29:29.378Z,2.33
2022-08-04T01:32:18.076Z,2.58
2022-08-04T01:34:56.042Z,2.90
2022-08-04T01:37:38.782Z,2.50
2022-08-04T01:40:07.674Z,2.80
2022-08-04T01:42:36.023Z,2.30
2022-08-04T01:45:08.476Z,2.42
2022-08-04T01:47:37.488Z,2.88
2022-08-04T01:50:14.178Z,2.47
2022-08-04T01:52:46.492Z,2.40
2022-08-04T01:55:18.161Z,2.30
2022-08-04T01:57:50.511Z,2.67
2022-08-04T02:00:27.333Z,2.65
2022-08-04T02:02:55.682Z,2.50
2022-08-04T02:05:24.853Z,2.58
2022-08-04T02:08:10.439Z,2.30
2022-08-04T02:10:42.938Z,2.65
2022-08-04T02:13:32.068Z,2.30
2022-08-04T02:16:21.801Z,2.75
2022-08-04T02:19:00.481Z,2.28
2022-08-04T02:21:27.856Z,2.80
2022-08-04T02:24:14.586Z,2.70
2022-08-04T02:26:43.920Z,3.20
2022-08-04T02:29:29.251Z,2.42
2022-08-04T02:32:05.369Z,3.28
2022-08-04T02:34:54.077Z,2.50
2022-08-04T02:37:22.826Z,2.50
2022-08-04T02:39:53.980Z,2.50
2022-08-04T02:44:50.461Z,2.60
2022-08-04T02:47:22.242Z,2.70
2022-08-04T02:49:51.535Z,2.60
2022-08-04T02:52:20.626Z,3.00
2022-08-04T02:54:52.015Z,2.45
2022-08-04T02:57:19.201Z,2.33
2022-08-04T03:00:04.042Z,2.70
2022-08-04T03:02:39.789Z,2.40
2022-08-04T03:05:50.205Z,2.60
2022-08-04T03:08:43.621Z,2.80
2022-08-04T03:11:27.933Z,2.58
2022-08-04T03:14:19.491Z,2.40
2022-08-04T03:16:58.409Z,2.38
2022-08-04T03:19:34.316Z,2.70
2022-08-04T03:22:13.810Z,2.80
2022-08-04T03:24:49.529Z,3.03
2022-08-04T03:27:16.082Z,2.88
2022-08-04T03:30:11.711Z,2.63
2022-08-04T03:33:06.923Z,3.25
2022-08-04T03:35:48.814Z,2.78
2022-08-04T03:38:21.377Z,3.00
2022-08-04T03:41:51.293Z,3.20
2022-08-04T03:44:30.190Z,3.22
2022-08-04T03:50:06.978Z,2.88
2022-08-04T03:53:10.618Z,3.28
2022-08-04T03:56:13.663Z,3.40
2022-08-04T03:58:46.132Z,3.05
2022-08-04T04:01:12.649Z,3.30
2022-08-04T04:03:59.218Z,3.53
2022-08-04T04:06:54.029Z,3.35
2022-08-04T04:09:58.116Z,3.88
2022-08-04T04:12:36.477Z,3.17
2022-08-04T04:15:15.093Z,3.08
2022-08-04T04:18:06.518Z,3.17
2022-08-04T04:20:50.816Z,2.80
2022-08-04T04:23:38.759Z,2.80
2022-08-04T04:26:26.688Z,3.25
2022-08-04T04:28:53.199Z,3.00
2022-08-04T04:31:22.812Z,3.20
2022-08-04T04:33:58.876Z,3.05
2022-08-04T04:36:35.489Z,2.97
2022-08-04T04:39:28.326Z,2.97
2022-08-04T04:42:32.044Z,3.10
2022-08-04T04:45:29.526Z,4.55
2022-08-04T04:48:12.744Z,3.40
2022-08-04T04:50:57.950Z,3.90
2022-08-04T04:53:34.346Z,3.53
2022-08-04T04:56:12.513Z,3.97
2022-08-04T04:58:42.989Z,2.95
2022-08-04T05:01:24.847Z,3.35
2022-08-04T05:04:29.183Z,3.40
2022-08-04T05:07:29.026Z,3.40
2022-08-04T05:10:17.110Z,3.33
2022-08-04T05:14:35.068Z,3.58
2022-08-04T05:16:01.345Z,3.88
2022-08-04T05:18:33.077Z,4.60
2022-08-04T05:21:13.267Z,4.63
2022-08-04T05:23:47.394Z,5.23
2022-08-04T05:26:20.152Z,4.50
2022-08-04T05:28:55.628Z,5.72
2022-08-04T05:31:27.328Z,4.88
2022-08-04T05:34:35.642Z,4.80
2022-08-04T05:37:09.208Z,4.30
2022-08-04T05:39:47.180Z,4.47
2022-08-04T05:42:15.412Z,5.18
2022-08-04T05:44:47.636Z,4.05
2022-08-04T05:47:17.476Z,4.32
2022-08-04T05:49:44.992Z,4.32
2022-08-04T05:52:24.603Z,3.95
2022-08-04T05:54:52.552Z,4.05
2022-08-04T05:57:20.591Z,3.88
2022-08-04T05:59:50.819Z,4.28
2022-08-04T06:02:20.498Z,3.77
2022-08-04T06:04:50.190Z,3.85
2022-08-04T06:07:20.538Z,3.53
2022-08-04T06:09:47.556Z,3.53
2022-08-04T06:12:46.531Z,4.10
2022-08-04T06:15:18.189Z,4.07
2022-08-04T06:18:58.543Z,3.90
2022-08-04T06:20:40.789Z,3.88
2022-08-04T06:23:20.969Z,3.78
2022-08-04T06:28:19.941Z,3.17
2022-08-04T06:30:49.982Z,3.60
2022-08-04T06:33:54.511Z,3.92
2022-08-04T06:36:21.365Z,3.45
2022-08-04T06:38:58.271Z,3.72
2022-08-04T06:41:26.375Z,3.83
2022-08-04T06:43:54.062Z,3.13
2022-08-04T06:46:21.282Z,4.70
2022-08-04T06:48:49.896Z,3.05
2022-08-04T06:51:32.309Z,3.58
2022-08-04T06:54:02.394Z,3.25
2022-08-04T06:56:31.041Z,3.42
2022-08-04T06:59:00.100Z,3.72
2022-08-04T07:01:29.286Z,3.65
2022-08-04T07:03:56.091Z,3.15
2022-08-04T07:06:23.605Z,2.92
2022-08-04T07:08:50.944Z,3.50
2022-08-04T07:11:19.382Z,3.35
2022-08-04T07:13:46.596Z,3.40
2022-08-04T07:16:18.254Z,3.13
2022-08-04T07:18:50.173Z,3.45
2022-08-04T07:21:23.770Z,4.05
2022-08-04T07:23:53.965Z,3.53
2022-08-04T07:26:26.536Z,3.20
2022-08-04T07:28:55.747Z,3.80
2022-08-04T07:31:34.031Z,3.35
2022-08-04T07:34:21.120Z,3.42
2022-08-04T07:36:55.435Z,3.47
2022-08-04T07:39:29.625Z,7.13
2022-08-04T07:41:59.079Z,10.07
2022-08-04T07:44:26.388Z,4.40
2022-08-04T07:46:53.938Z,4.15
2022-08-04T07:49:55.741Z,4.30
2022-08-04T07:52:08.610Z,3.30
2022-08-04T07:54:39.913Z,3.55
2022-08-04T07:57:06.543Z,3.60
2022-08-04T07:59:33.703Z,3.55
2022-08-04T08:02:02.096Z,4.32
2022-08-04T08:04:29.702Z,3.22
2022-08-04T08:07:00.468Z,3.95
2022-08-04T08:09:27.171Z,3.35
2022-08-04T08:12:38.166Z,3.65
2022-08-04T08:17:12.205Z,3.17
2022-08-04T08:19:38.838Z,3.33
2022-08-04T08:22:05.877Z,2.80
2022-08-04T08:24:36.854Z,3.08
2022-08-04T08:27:04.874Z,3.47
2022-08-04T08:29:34.048Z,3.35
2022-08-04T08:32:07.791Z,3.20
2022-08-04T08:34:35.338Z,3.30
2022-08-04T08:37:30.300Z,3.17
2022-08-04T08:40:16.417Z,3.17
2022-08-04T08:44:04.876Z,3.08
2022-08-04T08:46:33.112Z,3.33
2022-08-04T08:49:13.980Z,3.40
2022-08-04T08:53:01.061Z,3.33
2022-08-04T08:55:54.258Z,3.25
2022-08-04T08:58:46.028Z,3.22
2022-08-04T09:01:29.762Z,3.83
2022-08-04T09:04:28.855Z,3.60
2022-08-04T09:07:13.850Z,3.08
2022-08-04T09:09:51.973Z,3.20
2022-08-04T09:12:41.520Z,3.08
2022-08-04T09:15:15.713Z,2.83
2022-08-04T09:17:54.282Z,3.40
2022-08-04T09:20:31.958Z,2.97
2022-08-04T09:23:13.980Z,3.00
2022-08-04T09:25:59.358Z,2.92
2022-08-04T09:28:52.926Z,3.05
2022-08-04T09:31:24.741Z,3.65
2022-08-04T09:34:05.801Z,2.97
2022-08-04T09:36:37.916Z,3.00
2022-08-04T09:39:29.625Z,3.08
2022-08-04T09:42:04.340Z,2.85
2022-08-04T09:45:05.876Z,2.67
2022-08-04T09:48:06.940Z,3.05
2022-08-04T09:50:40.867Z,3.00
2022-08-04T09:53:29.444Z,2.58
2022-08-04T09:56:04.784Z,2.83
2022-08-04T09:58:51.291Z,3.10
2022-08-04T10:01:25.476Z,3.38
2022-08-04T10:04:07.432Z,2.60
2022-08-04T10:07:00.682Z,2.60
2022-08-04T10:09:54.269Z,3.08
2022-08-04T10:12:38.828Z,2.67
2022-08-04T10:15:20.862Z,3.10
2022-08-04T10:17:54.275Z,2.33
2022-08-04T10:24:11.513Z,2.42
2022-08-04T10:27:00.190Z,2.95
2022-08-04T10:29:37.406Z,3.10
2022-08-04T10:32:22.032Z,2.45
2022-08-04T10:35:13.011Z,2.70
2022-08-04T10:38:02.488Z,2.95
2022-08-04T10:40:45.216Z,2.22
2022-08-04T10:43:22.626Z,2.78
2022-08-04T10:46:01.165Z,2.70
2022-08-04T10:48:34.937Z,2.60
2022-08-04T10:51:29.779Z,2.25
2022-08-04T10:54:00.206Z,2.78
2022-08-04T10:56:41.994Z,2.70
2022-08-04T10:59:48.757Z,2.55
2022-08-04T11:02:34.285Z,2.60
2022-08-04T11:05:04.740Z,2.72
2022-08-04T11:07:35.048Z,2.35
2022-08-04T11:10:02.658Z,2.30
2022-08-04T11:12:31.193Z,2.50
2022-08-04T11:15:13.505Z,2.40
2022-08-04T11:17:47.219Z,2.10
2022-08-04T11:20:38.375Z,2.30
2022-08-04T11:23:14.472Z,2.70
2022-08-04T11:26:04.961Z,2.72
2022-08-04T11:28:46.050Z,2.80
2022-08-04T11:31:17.881Z,2.55
2022-08-04T11:33:52.550Z,2.40
2022-08-04T11:36:25.034Z,2.33
2022-08-04T11:39:28.314Z,2.30
2022-08-04T11:42:21.047Z,2.55
2022-08-04T11:44:51.428Z,2.55
2022-08-04T11:47:30.404Z,2.55
2022-08-04T11:50:09.823Z,2.00
2022-08-04T11:52:41.809Z,2.00
2022-08-04T11:55:11.592Z,2.00
2022-08-04T12:00:12.711Z,2.72
2022-08-04T12:03:22.458Z,2.15
2022-08-04T12:06:10.787Z,2.20
2022-08-04T12:09:04.696Z,2.25
2022-08-04T12:11:53.860Z,2.65
2022-08-04T12:14:49.582Z,2.50
2022-08-04T12:17:27.595Z,2.75
2022-08-04T12:20:38.438Z,2.40
2022-08-04T12:22:56.184Z,2.45
2022-08-04T12:28:21.808Z,2.22
2022-08-04T12:31:01.125Z,1.98
2022-08-04T12:34:04.190Z,2.17
2022-08-04T12:36:45.276Z,2.08
2022-08-04T12:39:18.073Z,2.30
2022-08-04T12:42:29.088Z,2.00
2022-08-04T12:44:58.417Z,2.00
2022-08-04T12:47:29.266Z,1.92
2022-08-04T12:50:02.255Z,1.90
2022-08-04T12:53:00.520Z,1.65
2022-08-04T12:55:22.505Z,1.95
2022-08-04T12:57:50.829Z,1.80
2022-08-04T13:00:33.182Z,1.73
2022-08-04T13:03:10.920Z,1.77
2022-08-04T13:05:42.915Z,1.88
2022-08-04T13:08:11.934Z,2.00
2022-08-04T13:10:43.565Z,1.70
2022-08-04T13:13:21.843Z,1.75
2022-08-04T13:16:08.369Z,1.95
2022-08-04T13:18:46.223Z,2.00
2022-08-04T13:21:20.778Z,2.03
2022-08-04T13:24:20.507Z,1.95
2022-08-04T13:26:54.311Z,2.08
2022-08-04T13:30:00.536Z,2.05
2022-08-04T13:32:16.652Z,1.60
2022-08-04T13:34:48.830Z,1.90
2022-08-04T13:37:21.059Z,1.70
2022-08-04T13:39:55.337Z,1.70
2022-08-04T13:42:25.915Z,2.00
2022-08-04T13:44:59.867Z,2.13
2022-08-04T13:47:34.210Z,2.03
2022-08-04T13:50:23.478Z,1.92
2022-08-04T13:52:53.516Z,1.98
2022-08-04T13:55:42.277Z,2.65
2022-08-04T13:58:21.892Z,1.88
2022-08-04T14:01:11.025Z,2.03
2022-08-04T14:03:54.018Z,1.90
2022-08-04T14:06:25.788Z,2.28
2022-08-04T14:09:10.026Z,2.10
2022-08-04T14:12:09.112Z,2.03
2022-08-04T14:14:32.404Z,1.92
2022-08-04T14:17:06.785Z,1.90
2022-08-04T14:19:56.188Z,2.33
2022-08-04T14:22:25.746Z,2.15
2022-08-04T14:25:15.330Z,2.15
2022-08-04T14:27:56.304Z,2.25
2022-08-04T14:30:36.230Z,1.98
2022-08-04T14:36:04.680Z,2.28
2022-08-04T14:39:00.285Z,2.20
2022-08-04T14:41:29.608Z,1.90
2022-08-04T14:44:03.231Z,2.13
2022-08-04T14:46:36.977Z,2.20
2022-08-04T14:49:03.753Z,1.90
2022-08-04T14:51:44.910Z,2.17
2022-08-04T14:54:18.444Z,1.92
2022-08-04T14:56:54.208Z,1.83
2022-08-04T14:59:22.797Z,1.85
2022-08-04T15:02:01.224Z,1.90
2022-08-04T15:04:31.439Z,2.05
2022-08-04T15:07:04.490Z,2.15
2022-08-04T15:09:32.748Z,2.05
2022-08-04T15:11:59.892Z,1.95
2022-08-04T15:14:37.333Z,2.30
2022-08-04T15:17:12.030Z,1.80
2022-08-04T15:19:55.589Z,2.17
2022-08-04T15:22:22.847Z,2.13
2022-08-04T15:24:55.097Z,2.40
2022-08-04T15:27:27.370Z,1.75
2022-08-04T15:30:01.615Z,2.20
2022-08-04T15:32:39.177Z,2.20
2022-08-04T15:35:13.359Z,2.05
2022-08-04T15:37:54.624Z,2.00
2022-08-04T15:40:44.755Z,1.98
2022-08-04T15:43:26.652Z,2.20
2022-08-04T15:46:41.753Z,2.28
2022-08-04T15:48:45.065Z,2.20
2022-08-04T15:51:15.048Z,2.47
2022-08-04T15:54:02.452Z,2.17
2022-08-04T15:56:30.019Z,2.30
2022-08-04T15:58:56.944Z,2.47
2022-08-04T16:01:24.174Z,2.08
2022-08-04T16:04:00.001Z,2.00
2022-08-04T16:06:29.854Z,2.10
2022-08-04T16:09:05.299Z,2.33
2022-08-04T16:11:40.087Z,2.38
2022-08-04T16:14:13.454Z,2.53
2022-08-04T16:16:39.970Z,2.15
2022-08-04T16:19:19.957Z,2.67
2022-08-04T16:24:30.246Z,2.10
2022-08-04T16:27:01.586Z,2.20
2022-08-04T16:29:44.395Z,2.20
2022-08-04T16:32:15.451Z,2.60
2022-08-04T16:35:05.402Z,2.60
2022-08-04T16:37:42.570Z,1.83
2022-08-04T16:40:36.476Z,2.58
2022-08-04T16:43:08.418Z,1.95
2022-08-04T16:45:50.082Z,2.05
2022-08-04T16:48:26.945Z,2.08
2022-08-04T16:51:05.352Z,2.65
2022-08-04T16:54:02.598Z,1.98
2022-08-04T16:56:33.358Z,2.17
2022-08-04T16:59:09.554Z,2.15
2022-08-04T17:01:37.659Z,2.08
2022-08-04T17:04:05.443Z,2.17
2022-08-04T17:06:40.955Z,2.20
2022-08-04T17:09:14.822Z,2.30
2022-08-04T17:11:43.391Z,2.17
2022-08-04T17:14:10.364Z,2.30
2022-08-04T17:16:40.327Z,2.33
2022-08-04T17:19:20.085Z,1.83
2022-08-04T17:21:58.877Z,2.13
2022-08-04T17:24:29.385Z,2.42
2022-08-04T17:26:58.113Z,2.40
2022-08-04T17:29:44.548Z,2.30
2022-08-04T17:32:17.060Z,2.90
2022-08-04T17:34:48.806Z,2.70
2022-08-04T17:40:28.863Z,2.50
2022-08-04T17:44:04.185Z,1.92
2022-08-04T17:46:29.141Z,2.45
2022-08-04T17:49:05.612Z,2.30
2022-08-04T17:52:05.606Z,2.10
2022-08-04T17:54:37.080Z,2.20
2022-08-04T17:57:21.231Z,2.30
2022-08-04T17:59:59.177Z,2.97
2022-08-04T18:02:32.851Z,2.47
2022-08-04T18:05:05.955Z,2.47
2022-08-04T18:08:34.748Z,2.28
2022-08-04T18:10:54.261Z,2.17
2022-08-04T18:13:25.792Z,2.25
2022-08-04T18:16:02.486Z,2.30
2022-08-04T18:18:29.790Z,2.17
2022-08-04T18:20:59.659Z,2.17
2022-08-04T18:23:31.854Z,2.30
2022-08-04T18:25:59.598Z,2.80
2022-08-04T18:28:33.047Z,2.42
2022-08-04T18:31:00.722Z,2.53
2022-08-04T18:33:40.367Z,2.17
2022-08-04T18:36:35.282Z,2.58
2022-08-04T18:39:12.750Z,2.50
2022-08-04T18:42:01.082Z,2.53
2022-08-04T18:44:30.807Z,2.05
2022-08-04T18:46:57.973Z,2.63
2022-08-04T18:50:58.801Z,2.60
2022-08-04T18:52:31.761Z,2.42
2022-08-04T18:58:00.923Z,2.10
2022-08-04T19:00:28.513Z,2.38
2022-08-04T19:02:55.165Z,2.30
2022-08-04T19:05:25.276Z,2.50
2022-08-04T19:08:33.886Z,2.50
2022-08-04T19:10:59.431Z,2.30
2022-08-04T19:13:27.767Z,2.60
2022-08-04T19:15:54.600Z,2.60
2022-08-04T19:18:25.923Z,2.20
2022-08-04T19:20:54.733Z,2.60
2022-08-04T19:24:10.773Z,2.58
2022-08-04T19:26:23.678Z,2.20
2022-08-04T19:28:55.227Z,2.50
2022-08-04T19:31:28.407Z,2.42
2022-08-04T19:34:04.734Z,2.70
2022-08-04T19:36:34.200Z,2.45
2022-08-04T19:39:11.352Z,2.33
2022-08-04T19:42:06.056Z,2.42
2022-08-04T19:44:25.793Z,2.70
2022-08-04T19:46:56.706Z,2.45
2022-08-04T19:50:02.870Z,2.50
2022-08-04T19:52:33.913Z,2.50
2022-08-04T19:55:10.880Z,2.40
2022-08-04T19:57:49.287Z,2.30
2022-08-04T20:00:18.132Z,2.67
2022-08-04T20:03:00.351Z,2.65
2022-08-04T20:05:52.630Z,2.47
2022-08-04T20:08:13.877Z,2.72
2022-08-04T20:10:51.544Z,2.40
2022-08-04T20:13:19.977Z,2.75
2022-08-04T20:15:57.344Z,2.70
2022-08-04T20:18:36.672Z,2.40
2022-08-04T20:21:19.608Z,2.50
2022-08-04T20:23:51.495Z,2.40
2022-08-04T20:26:18.277Z,2.50
2022-08-04T20:28:45.774Z,2.95
2022-08-04T20:31:18.480Z,2.40
2022-08-04T20:33:49.100Z,2.60
2022-08-04T20:36:20.350Z,2.90
2022-08-04T20:38:51.971Z,2.65
2022-08-04T20:41:19.587Z,3.33
2022-08-04T20:43:46.681Z,2.70
2022-08-04T20:48:45.432Z,2.40
2022-08-04T20:51:17.865Z,2.28
2022-08-04T20:53:53.166Z,2.72
2022-08-04T20:56:30.617Z,2.38
2022-08-04T20:58:59.624Z,2.60
2022-08-04T21:01:27.029Z,2.40
2022-08-04T21:04:28.449Z,2.10
2022-08-04T21:06:59.477Z,2.38
2022-08-04T21:09:38.399Z,3.83
2022-08-04T21:12:27.949Z,2.45
2022-08-04T21:15:01.473Z,2.30
2022-08-04T21:17:58.590Z,2.50
2022-08-04T21:20:33.569Z,2.35
2022-08-04T21:23:02.106Z,2.50
2022-08-04T21:25:30.290Z,2.50
2022-08-04T21:27:59.077Z,2.67
2022-08-04T21:30:31.226Z,2.97
2022-08-04T21:33:04.168Z,2.35
2022-08-04T21:35:38.254Z,2.20
2022-08-04T21:38:17.306Z,2.80
2022-08-04T21:40:57.114Z,2.20
2022-08-04T21:43:28.679Z,2.50
2022-08-04T21:45:56.409Z,3.78
2022-08-04T21:48:27.604Z,2.17
2022-08-04T21:50:55.174Z,2.42
2022-08-04T21:53:22.995Z,2.55
2022-08-04T21:56:05.657Z,2.80
2022-08-04T21:58:34.494Z,2.15
2022-08-04T22:01:06.106Z,2.67
2022-08-04T22:03:52.336Z,3.13
2022-08-04T22:06:28.243Z,2.72
2022-08-04T22:08:57.062Z,2.67
2022-08-04T22:11:48.389Z,3.78
2022-08-04T22:14:29.671Z,3.63
2022-08-04T22:17:02.453Z,3.80
2022-08-04T22:19:50.298Z,3.90
2022-08-04T22:22:24.720Z,4.30
2022-08-04T22:24:53.278Z,3.58
2022-08-04T22:27:38.472Z,4.85
2022-08-04T22:30:16.762Z,4.03
2022-08-04T22:32:48.270Z,4.28
2022-08-04T22:35:36.190Z,4.10
2022-08-04T22:38:21.322Z,3.67
2022-08-04T22:41:03.925Z,4.10
2022-08-04T22:43:34.442Z,4.30
2022-08-04T22:46:05.179Z,4.57
2022-08-04T22:48:36.830Z,4.28
2022-08-04T22:51:04.941Z,4.05
2022-08-04T22:53:32.207Z,4.10
2022-08-04T22:56:09.782Z,3.97
2022-08-04T22:58:45.612Z,3.78
2022-08-04T23:01:18.593Z,3.83
2022-08-04T23:03:55.041Z,3.28
2022-08-04T23:06:24.954Z,3.70
2022-08-04T23:08:52.101Z,4.35
2022-08-04T23:11:19.028Z,3.28
2022-08-04T23:13:45.979Z,3.83
2022-08-04T23:16:14.187Z,3.42
2022-08-04T23:18:42.128Z,3.30
2022-08-04T23:21:13.915Z,3.78
2022-08-04T23:24:00.755Z,3.13
2022-08-04T23:27:06.882Z,3.67
2022-08-04T23:29:53.036Z,3.92
2022-08-04T23:32:21.053Z,3.55
2022-08-04T23:34:49.285Z,3.60
2022-08-04T23:37:15.883Z,3.50
2022-08-04T23:40:14.439Z,3.58
2022-08-04T23:42:29.170Z,3.40
2022-08-04T23:44:55.799Z,3.97
2022-08-04T23:48:15.515Z,3.20
2022-08-04T23:50:09.446Z,3.22
2022-08-04T23:52:36.045Z,4.05
2022-08-04T23:55:02.748Z,4.25
2022-08-04T23:58:16.753Z,3.78
